Tabernacle, New Jersey
Current Conditions -  °F | °C
As of 12:54 PM on Sunday 21 Dec 2014 (Local Time) from KVAY Reporting Station
Clear Clear  
Wind Chill: 31°   Ceiling: Unl
Heat Index: 38°   Visibility: 10mi
Dew Point: 22°   Wind: 9mph
Humidity: 53%   Direction: 330°NNW
Pressure: 30.3"   Gusts: NA
Location:  39.7955°N, 74.6301°W
Report Text: KVAY 211754Z AUTO 33008KT 10SM CLR 03/M06 A3030 RMK AO2 SLP260 T00331056 10039 21022 58015
Loading
Personal Weather Stations






























Interactive Weather Map New forecast layout! Learn more

10-Day Weather Forecast

Advertisements
Track Severe Weather on mobile